Time;durP1;ratioP1;P1;durP2;ratioP2;P2;SDS_P1;SDS_P2;PMS_P1;PMS_P2;Temp;Humidity;BMP_temperature;BMP_pressure;BME280_temperature;BME280_humidity;BME280_pressure;Samples;Min_cycle;Max_cycle;Signal;HPM_P1;HPM_P2
2021/04/25 00:00:50;;;;;;;3.10;1.38;;;8.80;99.90;;;;;;4975360;28;20180;-76
2021/04/25 00:03:15;;;;;;;9.10;2.05;;;8.60;99.90;;;;;;4974046;28;20573;-75
2021/04/25 00:05:41;;;;;;;0.28;0.28;;;8.50;99.90;;;;;;4973998;28;20213;-76
2021/04/25 00:08:07;;;;;;;0.30;0.30;;;8.50;99.90;;;;;;4975132;28;20204;-75
2021/04/25 00:10:32;;;;;;;0.22;0.22;;;8.60;99.90;;;;;;4975241;28;20177;-75
2021/04/25 00:12:58;;;;;;;5.15;0.52;;;8.50;99.90;;;;;;4975203;28;20649;-75
2021/04/25 00:15:26;;;;;;;0.60;0.60;;;8.40;99.90;;;;;;4975086;28;20516;-75
2021/04/25 00:17:52;;;;;;;0.77;0.77;;;8.40;99.90;;;;;;4975011;28;20190;-75
2021/04/25 00:20:19;;;;;;;0.30;0.30;;;8.40;99.90;;;;;;4975065;28;20170;-76
2021/04/25 00:22:45;;;;;;;0.40;0.40;;;8.20;99.90;;;;;;4975006;28;20182;-75
2021/04/25 00:25:13;;;;;;;0.55;0.55;;;8.30;99.90;;;;;;4974970;28;20236;-75
2021/04/25 00:27:39;;;;;;;0.57;0.57;;;8.40;99.90;;;;;;4974785;28;20537;-76
2021/04/25 00:30:08;;;;;;;0.20;0.20;;;8.40;99.90;;;;;;4975062;28;20182;-76
2021/04/25 00:32:34;;;;;;;0.85;0.85;;;8.30;99.90;;;;;;4974787;28;20194;-76
2021/04/25 00:35:00;;;;;;;0.30;0.30;;;8.30;99.90;;;;;;4974934;28;20154;-75
2021/04/25 00:37:26;;;;;;;0.60;0.60;;;8.20;99.90;;;;;;4974706;28;20200;-76
2021/04/25 00:39:51;;;;;;;0.70;0.30;;;8.20;99.90;;;;;;4974804;28;20185;-75
2021/04/25 00:42:17;;;;;;;1.17;0.30;;;8.10;99.90;;;;;;4974627;28;20172;-75
2021/04/25 00:44:47;;;;;;;0.40;0.40;;;8.10;99.90;;;;;;4974648;28;20245;-76
2021/04/25 00:47:13;;;;;;;1.27;0.57;;;8.00;99.90;;;;;;4974573;28;20193;-75
2021/04/25 00:49:39;;;;;;;0.40;0.40;;;7.90;99.90;;;;;;4973345;28;20173;-75
2021/04/25 00:52:07;;;;;;;1.90;1.00;;;7.90;99.90;;;;;;4972994;28;20273;-76
2021/04/25 00:54:33;;;;;;;0.30;0.30;;;7.90;99.90;;;;;;4973219;28;20173;-75
2021/04/25 00:56:59;;;;;;;0.73;0.50;;;7.70;99.90;;;;;;4974240;28;20193;-76
2021/04/25 00:59:26;;;;;;;1.58;0.68;;;7.70;99.90;;;;;;4974546;28;20496;-75
2021/04/25 01:01:52;;;;;;;0.60;0.60;;;7.70;99.90;;;;;;4974451;28;20615;-75
2021/04/25 01:04:18;;;;;;;3.50;1.48;;;7.50;99.90;;;;;;4974441;28;20310;-75
2021/04/25 01:06:43;;;;;;;0.25;0.25;;;7.50;99.90;;;;;;4974273;28;20698;-75
2021/04/25 01:09:09;;;;;;;0.10;0.10;;;7.50;99.90;;;;;;4974341;28;20169;-75
2021/04/25 01:11:35;;;;;;;5.68;0.90;;;7.50;99.90;;;;;;4974343;28;20644;-75
2021/04/25 01:14:00;;;;;;;0.20;0.20;;;7.60;99.90;;;;;;4973029;28;20170;-74
2021/04/25 01:16:28;;;;;;;0.30;0.30;;;7.60;99.90;;;;;;4972778;28;20208;-76
2021/04/25 01:18:54;;;;;;;0.47;0.47;;;7.60;99.90;;;;;;4974246;28;20667;-76
2021/04/25 01:21:20;;;;;;;0.65;0.65;;;7.60;99.90;;;;;;4973251;28;20544;-76
2021/04/25 01:23:45;;;;;;;0.45;0.45;;;7.50;99.90;;;;;;4974196;28;20166;-75
2021/04/25 01:26:11;;;;;;;2.95;0.50;;;7.40;99.90;;;;;;4974138;28;20296;-75
2021/04/25 01:28:37;;;;;;;1.02;0.77;;;7.50;99.90;;;;;;4974207;28;20185;-75
2021/04/25 01:31:03;;;;;;;0.20;0.20;;;7.50;99.90;;;;;;4974658;28;20605;-75
2021/04/25 01:33:29;;;;;;;0.60;0.60;;;7.40;99.90;;;;;;4974082;28;20193;-75
2021/04/25 01:35:55;;;;;;;0.63;0.63;;;7.30;99.90;;;;;;4974052;28;20625;-75
2021/04/25 01:38:21;;;;;;;0.73;0.73;;;7.30;99.90;;;;;;4973986;28;20261;-75
2021/04/25 01:40:46;;;;;;;0.85;0.52;;;7.30;99.90;;;;;;4973799;28;20639;-74
2021/04/25 01:43:12;;;;;;;0.80;0.80;;;7.30;99.90;;;;;;4973935;28;20637;-74
2021/04/25 01:45:38;;;;;;;0.63;0.63;;;7.10;99.90;;;;;;4973986;28;20194;-75
2021/04/25 01:48:05;;;;;;;0.85;0.85;;;7.00;99.90;;;;;;4973967;28;20190;-76
2021/04/25 01:50:31;;;;;;;0.20;0.20;;;7.00;99.90;;;;;;4973932;28;20169;-77
2021/04/25 01:52:58;;;;;;;3.30;0.40;;;7.00;99.90;;;;;;4973783;28;20216;-76
2021/04/25 01:55:25;;;;;;;0.55;0.55;;;6.90;99.90;;;;;;4973958;28;20162;-77
2021/04/25 01:57:51;;;;;;;0.60;0.60;;;6.90;99.90;;;;;;4973806;28;20196;-76
2021/04/25 02:00:20;;;;;;;0.30;0.30;;;7.00;99.90;;;;;;4972512;28;20257;-76
2021/04/25 02:02:52;;;;;;;0.22;0.22;;;7.00;99.90;;;;;;4973813;28;20194;-77
2021/04/25 02:05:18;;;;;;;0.90;0.88;;;7.10;99.90;;;;;;4972363;28;20209;-77
2021/04/25 02:07:43;;;;;;;1.70;0.95;;;7.20;99.90;;;;;;4975316;28;20643;-76
2021/04/25 02:10:09;;;;;;;7.43;1.50;;;7.20;99.90;;;;;;4977374;28;20166;-77
2021/04/25 02:12:35;;;;;;;0.93;0.93;;;6.90;99.90;;;;;;4977599;28;20249;-77
2021/04/25 02:15:02;;;;;;;0.68;0.68;;;6.70;99.90;;;;;;4977383;28;20583;-78
2021/04/25 02:17:28;;;;;;;2.28;1.15;;;6.60;99.90;;;;;;4977268;28;20198;-77
2021/04/25 02:19:53;;;;;;;0.43;0.43;;;6.70;99.90;;;;;;4977180;28;20258;-77
2021/04/25 02:22:19;;;;;;;0.40;0.40;;;6.70;99.90;;;;;;4977186;28;20182;-77
2021/04/25 02:24:44;;;;;;;0.60;0.60;;;6.70;99.90;;;;;;4977149;28;20155;-77
2021/04/25 02:27:10;;;;;;;0.43;0.43;;;6.80;99.90;;;;;;4977071;28;20201;-77
2021/04/25 02:29:35;;;;;;;11.95;0.90;;;6.70;99.90;;;;;;4977073;28;20252;-77
2021/04/25 02:32:01;;;;;;;0.65;0.65;;;6.70;99.90;;;;;;4977053;28;20177;-77
2021/04/25 02:34:27;;;;;;;0.32;0.32;;;6.70;99.90;;;;;;4977055;28;20170;-77
2021/04/25 02:36:52;;;;;;;0.30;0.30;;;6.50;99.90;;;;;;4976806;28;20668;-77
2021/04/25 02:39:18;;;;;;;0.82;0.82;;;6.50;99.90;;;;;;4977079;28;20646;-76
2021/04/25 02:41:44;;;;;;;1.10;1.10;;;6.50;99.90;;;;;;4976975;28;20158;-76
2021/04/25 02:44:10;;;;;;;11.80;1.17;;;6.40;99.90;;;;;;4975618;28;20189;-76
2021/04/25 02:46:36;;;;;;;0.63;0.63;;;6.40;99.90;;;;;;4976721;28;20276;-77
2021/04/25 02:49:01;;;;;;;1.10;1.10;;;6.60;99.90;;;;;;4976713;28;20154;-76
2021/04/25 02:51:27;;;;;;;1.50;1.25;;;6.70;99.90;;;;;;4976509;28;20245;-77
2021/04/25 02:53:52;;;;;;;0.40;0.40;;;6.60;99.90;;;;;;4976615;28;20174;-77
2021/04/25 02:56:18;;;;;;;0.40;0.40;;;6.60;99.90;;;;;;4976600;28;20174;-77
2021/04/25 02:58:43;;;;;;;0.52;0.52;;;6.70;99.90;;;;;;4975481;28;20190;-76
2021/04/25 03:01:09;;;;;;;0.65;0.57;;;6.80;99.90;;;;;;4976528;28;20170;-76
2021/04/25 03:03:34;;;;;;;0.50;0.50;;;6.80;99.90;;;;;;4975240;28;20224;-76
2021/04/25 03:06:00;;;;;;;7.32;1.05;;;6.90;99.90;;;;;;4976328;28;20237;-76
2021/04/25 03:08:26;;;;;;;0.57;0.57;;;7.00;99.90;;;;;;4976354;28;20240;-76
2021/04/25 03:10:51;;;;;;;1.60;1.17;;;7.10;99.90;;;;;;4975126;28;20169;-76
2021/04/25 03:13:17;;;;;;;1.88;0.70;;;7.00;99.90;;;;;;4976273;28;20232;-76
2021/04/25 03:15:43;;;;;;;1.20;1.10;;;6.70;99.90;;;;;;4975069;28;20232;-76
2021/04/25 03:18:08;;;;;;;0.50;0.50;;;6.70;99.90;;;;;;4974755;28;20198;-76
2021/04/25 03:20:34;;;;;;;0.88;0.88;;;6.80;99.90;;;;;;4976243;28;20204;-76
2021/04/25 03:23:00;;;;;;;1.50;1.40;;;6.90;99.90;;;;;;4976254;28;20170;-75
2021/04/25 03:25:25;;;;;;;1.85;0.80;;;6.70;99.90;;;;;;4976045;28;20665;-76
2021/04/25 03:27:52;;;;;;;0.30;0.30;;;6.70;99.90;;;;;;4975972;28;20660;-76
2021/04/25 03:30:19;;;;;;;0.40;0.40;;;6.60;99.90;;;;;;4976032;28;20189;-76
2021/04/25 03:32:45;;;;;;;1.92;1.17;;;6.40;99.90;;;;;;4975933;28;20223;-76
2021/04/25 03:35:13;;;;;;;4.47;1.15;;;6.40;99.90;;;;;;4975966;28;20625;-76
2021/04/25 03:37:39;;;;;;;1.45;0.50;;;6.50;99.90;;;;;;4975697;28;20676;-76
2021/04/25 03:40:08;;;;;;;1.30;0.88;;;6.60;99.90;;;;;;4975762;28;20180;-76
2021/04/25 03:42:34;;;;;;;1.10;0.80;;;6.70;99.90;;;;;;4974452;28;20177;-76
2021/04/25 03:45:00;;;;;;;0.30;0.30;;;6.80;99.90;;;;;;4974876;28;20201;-76
2021/04/25 03:47:26;;;;;;;0.73;0.73;;;6.90;99.90;;;;;;4975642;28;20193;-75
2021/04/25 03:49:51;;;;;;;1.42;1.33;;;6.40;99.90;;;;;;4975613;28;20174;-76
2021/04/25 03:52:17;;;;;;;0.55;0.55;;;6.40;99.90;;;;;;4975436;28;20227;-76
2021/04/25 03:54:42;;;;;;;0.28;0.28;;;6.40;99.90;;;;;;4975570;28;20556;-75
2021/04/25 03:57:08;;;;;;;0.50;0.50;;;6.40;99.90;;;;;;4975260;28;20688;-76
2021/04/25 03:59:34;;;;;;;1.75;1.27;;;6.20;99.90;;;;;;4975420;28;20181;-75
2021/04/25 04:02:00;;;;;;;1.45;1.42;;;6.00;99.90;;;;;;4975305;28;20656;-76
2021/04/25 04:04:25;;;;;;;0.45;0.45;;;6.00;99.90;;;;;;4975319;28;20197;-75
2021/04/25 04:06:51;;;;;;;2.88;1.33;;;6.10;99.90;;;;;;4975145;28;20222;-75
2021/04/25 04:09:18;;;;;;;0.85;0.85;;;6.20;99.90;;;;;;4973937;28;20265;-75
2021/04/25 04:11:45;;;;;;;4.68;2.75;;;6.00;99.90;;;;;;4975319;28;20593;-76
2021/04/25 04:14:10;;;;;;;1.33;1.27;;;6.10;99.90;;;;;;4975069;28;20158;-76
2021/04/25 04:16:36;;;;;;;3.05;1.23;;;6.20;99.90;;;;;;4975012;28;20649;-76
2021/04/25 04:19:02;;;;;;;0.55;0.55;;;6.00;99.90;;;;;;4975090;28;20170;-76
2021/04/25 04:21:27;;;;;;;0.82;0.82;;;6.10;99.90;;;;;;4973844;28;20173;-76
2021/04/25 04:23:53;;;;;;;1.38;1.27;;;6.20;99.90;;;;;;4974964;28;20166;-76
2021/04/25 04:26:18;;;;;;;1.10;1.10;;;6.00;99.90;;;;;;4974826;28;20292;-76
2021/04/25 04:28:44;;;;;;;0.43;0.43;;;5.90;99.90;;;;;;4974797;28;20196;-76
2021/04/25 04:31:10;;;;;;;1.75;1.10;;;6.00;99.90;;;;;;4974365;28;20185;-76
2021/04/25 04:33:36;;;;;;;0.75;0.75;;;6.10;99.90;;;;;;4973540;28;20165;-76
2021/04/25 04:36:05;;;;;;;1.15;1.10;;;6.10;99.90;;;;;;4974779;28;20701;-76
2021/04/25 04:38:31;;;;;;;0.45;0.45;;;6.10;99.90;;;;;;4974655;28;20217;-76
2021/04/25 04:40:57;;;;;;;3.15;0.55;;;6.10;99.90;;;;;;4973373;28;20197;-74
2021/04/25 04:43:23;;;;;;;1.45;1.40;;;6.10;99.90;;;;;;4974645;28;20229;-74
2021/04/25 04:45:49;;;;;;;0.30;0.30;;;6.00;99.90;;;;;;4974571;28;20379;-75
2021/04/25 04:48:15;;;;;;;10.05;1.10;;;5.90;99.90;;;;;;4973568;28;20269;-74
2021/04/25 04:50:40;;;;;;;4.30;0.93;;;5.80;99.90;;;;;;4974449;28;20166;-76
2021/04/25 04:53:06;;;;;;;0.98;0.98;;;5.80;99.90;;;;;;4973098;28;20312;-75
2021/04/25 04:55:32;;;;;;;0.20;0.20;;;5.80;99.90;;;;;;4974469;28;20226;-75
2021/04/25 04:57:57;;;;;;;1.48;0.70;;;5.80;99.90;;;;;;4974391;28;20185;-76
2021/04/25 05:00:23;;;;;;;0.20;0.20;;;5.90;99.90;;;;;;4974347;28;20176;-76
2021/04/25 05:02:48;;;;;;;0.80;0.70;;;6.00;99.90;;;;;;4974413;28;20562;-76
2021/04/25 05:05:14;;;;;;;0.22;0.22;;;6.20;99.90;;;;;;4974433;28;20260;-76
2021/04/25 05:07:40;;;;;;;1.65;1.55;;;6.20;99.90;;;;;;4974304;28;20276;-77
2021/04/25 05:10:06;;;;;;;0.75;0.75;;;6.20;99.90;;;;;;4974531;28;20514;-77
2021/04/25 05:12:32;;;;;;;1.55;0.70;;;6.40;99.90;;;;;;4973218;28;20177;-76
2021/04/25 05:14:58;;;;;;;0.80;0.80;;;6.40;99.90;;;;;;4974491;28;20162;-77
2021/04/25 05:17:23;;;;;;;0.40;0.40;;;6.40;99.90;;;;;;4974155;28;20190;-77
2021/04/25 05:19:49;;;;;;;0.40;0.40;;;6.30;99.90;;;;;;4974316;28;20680;-77
2021/04/25 05:22:14;;;;;;;0.93;0.93;;;6.30;99.90;;;;;;4974145;28;20220;-77
2021/04/25 05:24:40;;;;;;;0.20;0.20;;;6.20;99.90;;;;;;4974378;28;20241;-77
2021/04/25 05:27:06;;;;;;;2.05;1.83;;;6.20;99.90;;;;;;4973788;28;20677;-77
2021/04/25 05:29:32;;;;;;;0.47;0.47;;;6.20;99.90;;;;;;4974188;28;20535;-77
2021/04/25 05:31:59;;;;;;;0.28;0.28;;;6.30;99.90;;;;;;4974212;28;20166;-77
2021/04/25 05:34:24;;;;;;;10.18;1.95;;;6.30;99.90;;;;;;4973884;28;20169;-77
2021/04/25 05:36:50;;;;;;;0.98;0.98;;;6.30;99.90;;;;;;4973863;28;20198;-77
2021/04/25 05:39:15;;;;;;;0.20;0.20;;;6.30;99.90;;;;;;4973983;28;20221;-77
2021/04/25 05:41:41;;;;;;;0.32;0.32;;;6.30;99.90;;;;;;4974055;28;20238;-77
2021/04/25 05:44:06;;;;;;;3.95;1.45;;;6.30;99.90;;;;;;4977963;28;20663;-77
2021/04/25 05:46:33;;;;;;;3.58;1.85;;;6.40;99.90;;;;;;4977430;28;20213;-76
2021/04/25 05:48:59;;;;;;;0.98;0.95;;;6.30;99.90;;;;;;4977704;28;20166;-77
2021/04/25 05:51:25;;;;;;;0.77;0.77;;;6.40;99.90;;;;;;4976434;28;20746;-76
2021/04/25 05:53:52;;;;;;;0.40;0.40;;;6.50;99.90;;;;;;4977700;28;20192;-77
2021/04/25 05:56:18;;;;;;;0.63;0.63;;;6.40;99.90;;;;;;4977659;28;20260;-76
2021/04/25 05:58:44;;;;;;;0.80;0.80;;;6.40;99.90;;;;;;4976238;28;20181;-77
2021/04/25 06:01:09;;;;;;;0.47;0.47;;;6.50;99.90;;;;;;4976213;28;20241;-78
2021/04/25 06:03:36;;;;;;;0.82;0.82;;;6.50;99.90;;;;;;4977386;28;20614;-77
2021/04/25 06:06:02;;;;;;;0.73;0.35;;;6.80;99.90;;;;;;4977337;28;20205;-78
2021/04/25 06:08:27;;;;;;;7.45;0.75;;;6.80;99.90;;;;;;4976220;28;20200;-78
2021/04/25 06:10:53;;;;;;;0.45;0.45;;;7.00;99.90;;;;;;4976164;28;20174;-77
2021/04/25 06:13:18;;;;;;;0.35;0.35;;;7.00;99.90;;;;;;4977352;28;20177;-76
2021/04/25 06:15:44;;;;;;;2.55;0.90;;;7.00;99.90;;;;;;4977123;28;20170;-77
2021/04/25 06:18:09;;;;;;;0.70;0.70;;;7.00;99.90;;;;;;4976075;28;20591;-77
2021/04/25 06:20:35;;;;;;;0.30;0.30;;;7.10;99.90;;;;;;4977014;28;20173;-77
2021/04/25 06:23:00;;;;;;;0.65;0.65;;;7.20;99.90;;;;;;4976628;28;20214;-79
2021/04/25 06:25:26;;;;;;;2.38;1.08;;;7.30;99.90;;;;;;4976988;28;20189;-76
2021/04/25 06:27:52;;;;;;;1.23;1.13;;;7.10;99.90;;;;;;4977043;28;20198;-77
2021/04/25 06:30:19;;;;;;;0.45;0.45;;;7.00;99.90;;;;;;4975659;28;20639;-76
2021/04/25 06:32:46;;;;;;;0.70;0.70;;;7.00;99.90;;;;;;4975749;28;20204;-76
2021/04/25 06:35:14;;;;;;;0.80;0.80;;;7.20;99.90;;;;;;4976785;28;20169;-75
2021/04/25 06:37:41;;;;;;;0.30;0.30;;;7.40;99.90;;;;;;4976715;28;20198;-76
2021/04/25 06:40:08;;;;;;;0.70;0.70;;;7.60;99.90;;;;;;4976692;28;20681;-76
2021/04/25 06:42:35;;;;;;;0.77;0.77;;;7.80;99.90;;;;;;4976645;28;20252;-77
2021/04/25 06:45:01;;;;;;;0.30;0.30;;;7.90;99.90;;;;;;4975346;28;20253;-80
2021/04/25 06:47:26;;;;;;;0.45;0.45;;;7.90;99.90;;;;;;4976606;28;20772;-78
2021/04/25 06:49:52;;;;;;;0.10;0.10;;;7.90;99.90;;;;;;4975098;28;20174;-76
2021/04/25 06:52:17;;;;;;;0.43;0.43;;;7.70;99.90;;;;;;4976577;28;20232;-76
2021/04/25 06:54:43;;;;;;;0.28;0.28;;;7.50;99.90;;;;;;4976099;28;20165;-78
2021/04/25 06:57:09;;;;;;;0.45;0.43;;;7.30;99.90;;;;;;4976504;28;20239;-77
2021/04/25 06:59:34;;;;;;;0.55;0.55;;;7.20;99.90;;;;;;4976316;28;20177;-78
2021/04/25 07:02:00;;;;;;;0.22;0.22;;;7.30;99.90;;;;;;4976356;28;20232;-77
2021/04/25 07:04:26;;;;;;;0.30;0.30;;;7.60;99.90;;;;;;4976335;28;20253;-76
2021/04/25 07:06:51;;;;;;;0.82;0.82;;;7.90;99.90;;;;;;4976273;28;20205;-76
2021/04/25 07:09:17;;;;;;;0.40;0.40;;;8.00;99.90;;;;;;4976224;28;20575;-76
2021/04/25 07:11:43;;;;;;;0.20;0.20;;;7.90;99.90;;;;;;4975129;28;20189;-83
2021/04/25 07:14:08;;;;;;;12.82;0.65;;;7.90;99.90;;;;;;4976199;28;20517;-77
2021/04/25 07:16:34;;;;;;;1.17;1.15;;;7.80;99.90;;;;;;4976124;28;20182;-76
2021/04/25 07:19:00;;;;;;;0.30;0.30;;;8.00;99.90;;;;;;4974731;28;20174;-76
2021/04/25 07:21:25;;;;;;;1.50;1.13;;;7.90;99.90;;;;;;4976132;28;20626;-77
2021/04/25 07:23:51;;;;;;;8.20;1.27;;;7.90;99.90;;;;;;4975912;28;20174;-76
2021/04/25 07:26:17;;;;;;;0.25;0.25;;;7.90;99.90;;;;;;4975685;28;20205;-79
2021/04/25 07:28:42;;;;;;;0.73;0.73;;;8.10;99.90;;;;;;4975594;28;20272;-79
2021/04/25 07:31:10;;;;;;;1.05;1.02;;;8.30;99.90;;;;;;4975820;28;20182;-78
2021/04/25 07:33:35;;;;;;;0.38;0.38;;;8.30;99.90;;;;;;4974418;28;20169;-77
2021/04/25 07:36:03;;;;;;;0.28;0.28;;;8.30;99.90;;;;;;4975711;28;20245;-76
2021/04/25 07:38:29;;;;;;;0.20;0.20;;;8.50;99.90;;;;;;4975605;28;20185;-76
2021/04/25 07:40:54;;;;;;;0.40;0.40;;;8.50;99.90;;;;;;4975532;28;20304;-76
2021/04/25 07:43:20;;;;;;;5.47;1.58;;;8.40;99.90;;;;;;4975605;28;20197;-78
2021/04/25 07:45:46;;;;;;;0.93;0.93;;;8.50;99.90;;;;;;4974294;28;20197;-75
2021/04/25 07:48:11;;;;;;;0.47;0.47;;;8.50;99.90;;;;;;4975603;28;20189;-76
2021/04/25 07:50:37;;;;;;;0.30;0.30;;;8.50;99.90;;;;;;4975144;28;20177;-77
2021/04/25 07:53:05;;;;;;;0.98;0.77;;;8.50;99.90;;;;;;4975216;28;20261;-76
2021/04/25 07:55:30;;;;;;;1.60;0.70;;;8.50;99.90;;;;;;4975144;28;20213;-76
2021/04/25 07:57:56;;;;;;;0.40;0.40;;;8.50;99.90;;;;;;4975160;28;20549;-76
2021/04/25 08:00:22;;;;;;;0.20;0.20;;;8.60;99.90;;;;;;4975297;28;20174;-77
2021/04/25 08:02:47;;;;;;;0.25;0.25;;;8.70;99.90;;;;;;4975232;28;20173;-76
2021/04/25 08:05:13;;;;;;;2.10;0.40;;;8.70;99.90;;;;;;4972850;28;20613;-77
2021/04/25 08:07:39;;;;;;;0.30;0.30;;;8.80;99.90;;;;;;4975205;28;20201;-78
2021/04/25 08:10:06;;;;;;;1.65;1.52;;;8.80;99.90;;;;;;4975129;28;20166;-78
2021/04/25 08:12:32;;;;;;;0.50;0.50;;;8.80;99.90;;;;;;4975367;28;20162;-78
2021/04/25 08:14:58;;;;;;;0.43;0.43;;;8.90;99.90;;;;;;4975140;28;20625;-77
2021/04/25 08:17:24;;;;;;;0.35;0.35;;;9.10;99.90;;;;;;4974864;28;20189;-76
2021/04/25 08:19:49;;;;;;;1.10;0.57;;;8.90;99.90;;;;;;4974980;28;20775;-77
2021/04/25 08:22:15;;;;;;;0.35;0.35;;;8.90;99.90;;;;;;4974835;28;20162;-78
2021/04/25 08:24:40;;;;;;;3.05;1.10;;;9.10;99.90;;;;;;4974972;28;20161;-77
2021/04/25 08:27:06;;;;;;;0.20;0.20;;;8.90;99.90;;;;;;4974585;28;20640;-76
2021/04/25 08:29:32;;;;;;;0.57;0.57;;;8.90;99.90;;;;;;4974616;28;20177;-77
2021/04/25 08:31:58;;;;;;;0.22;0.22;;;9.00;99.90;;;;;;4974877;28;20217;-77
2021/04/25 08:34:23;;;;;;;1.35;0.40;;;8.80;99.90;;;;;;4973529;28;20170;-76
2021/04/25 08:36:49;;;;;;;0.20;0.20;;;8.90;99.90;;;;;;4974555;28;20190;-76
2021/04/25 08:39:14;;;;;;;3.10;1.35;;;9.00;99.90;;;;;;4974305;28;20342;-76
2021/04/25 08:41:40;;;;;;;0.28;0.28;;;9.20;99.90;;;;;;4974551;28;20166;-76
2021/04/25 08:44:07;;;;;;;0.30;0.30;;;9.30;99.90;;;;;;4974280;28;20242;-78
2021/04/25 08:46:33;;;;;;;0.28;0.28;;;9.20;99.90;;;;;;4974238;28;20206;-76
2021/04/25 08:48:59;;;;;;;0.50;0.50;;;9.40;99.90;;;;;;4973513;28;20633;-80
2021/04/25 08:51:25;;;;;;;0.98;0.95;;;9.60;99.90;;;;;;4974369;28;20162;-80
2021/04/25 08:53:51;;;;;;;0.68;0.68;;;9.60;99.90;;;;;;4974507;28;20625;-79
2021/04/25 08:56:17;;;;;;;0.50;0.50;;;9.50;99.90;;;;;;4974292;28;20169;-77
2021/04/25 08:58:43;;;;;;;0.30;0.30;;;9.60;99.90;;;;;;4974101;28;20190;-76
2021/04/25 09:01:10;;;;;;;0.13;0.13;;;9.50;99.90;;;;;;4974246;28;20182;-80
2021/04/25 09:03:36;;;;;;;1.30;1.30;;;9.60;99.90;;;;;;4974155;28;20253;-78
2021/04/25 09:06:05;;;;;;;2.17;0.35;;;9.50;99.90;;;;;;4972897;28;20642;-75
2021/04/25 09:08:48;;;;;;;0.40;0.40;;;9.50;99.90;;;;;;4974369;28;20197;-75
2021/04/25 09:11:32;;;;;;;0.63;0.63;;;9.80;99.90;;;;;;4971970;28;20632;-76
2021/04/25 09:14:19;;;;;;;0.30;0.30;;;10.00;99.90;;;;;;4974091;28;20173;-77
2021/04/25 09:16:53;;;;;;;0.98;0.70;;;10.20;99.90;;;;;;4973548;28;20180;-76
2021/04/25 09:19:19;;;;;;;0.30;0.30;;;10.40;99.90;;;;;;4973712;28;20162;-77
2021/04/25 09:22:02;;;;;;;4.90;1.67;;;10.40;99.90;;;;;;4973820;28;20519;-79
2021/04/25 09:24:30;;;;;;;0.50;0.50;;;10.40;99.90;;;;;;4972754;28;20170;-83
2021/04/25 09:26:56;;;;;;;0.35;0.35;;;10.50;99.90;;;;;;4972856;28;20344;-83
2021/04/25 09:29:25;;;;;;;2.25;0.55;;;10.50;99.90;;;;;;4972917;28;20181;-80
2021/04/25 09:31:52;;;;;;;2.10;1.33;;;10.90;99.90;;;;;;4973626;28;20214;-81
2021/04/25 09:34:29;;;;;;;0.75;0.40;;;11.10;99.90;;;;;;4972634;28;20204;-81
2021/04/25 09:36:56;;;;;;;0.75;0.75;;;11.00;99.90;;;;;;4972403;28;20204;-80
2021/04/25 09:39:23;;;;;;;0.38;0.38;;;10.70;99.90;;;;;;4973956;28;20159;-78
2021/04/25 09:41:49;;;;;;;8.05;0.50;;;10.40;99.90;;;;;;4972860;28;20185;-78
2021/04/25 09:44:37;;;;;;;0.50;0.38;;;10.20;99.90;;;;;;4979746;28;20154;-78
2021/04/25 09:47:05;;;;;;;0.35;0.35;;;10.30;99.90;;;;;;4981819;28;20213;-79
2021/04/25 09:49:49;;;;;;;0.52;0.52;;;10.40;99.90;;;;;;4973880;28;20205;-80
2021/04/25 09:52:38;;;;;;;4.28;1.20;;;10.20;99.90;;;;;;4971990;28;20316;-79
2021/04/25 09:55:24;;;;;;;0.50;0.50;;;10.20;99.90;;;;;;4972495;28;20676;-76
2021/04/25 09:57:56;;;;;;;1.45;1.35;;;10.50;99.90;;;;;;4973582;28;20177;-76
2021/04/25 10:00:22;;;;;;;1.20;0.43;;;10.30;99.90;;;;;;4973576;28;20660;-76
2021/04/25 10:03:06;;;;;;;0.30;0.30;;;10.50;99.90;;;;;;4972314;28;20207;-76
2021/04/25 10:05:31;;;;;;;0.32;0.32;;;10.50;99.90;;;;;;4973438;28;20293;-77
2021/04/25 10:07:58;;;;;;;1.70;1.05;;;10.40;99.90;;;;;;4973693;28;20190;-78
2021/04/25 10:10:24;;;;;;;0.47;0.47;;;10.60;99.90;;;;;;4973578;28;20173;-78
2021/04/25 10:12:50;;;;;;;1.52;1.42;;;10.70;99.90;;;;;;4973482;28;20170;-78
2021/04/25 10:15:17;;;;;;;0.68;0.68;;;10.70;99.90;;;;;;4973070;28;20551;-78
2021/04/25 10:17:48;;;;;;;0.25;0.25;;;10.80;99.90;;;;;;4973338;28;20225;-78
2021/04/25 10:20:16;;;;;;;0.35;0.35;;;10.60;99.90;;;;;;4971843;28;20174;-76
2021/04/25 10:22:43;;;;;;;0.77;0.77;;;10.50;99.90;;;;;;4971946;28;20170;-77
2021/04/25 10:25:11;;;;;;;0.30;0.30;;;10.40;99.90;;;;;;4974009;28;20515;-82
2021/04/25 10:27:41;;;;;;;0.32;0.32;;;10.50;99.90;;;;;;4973097;28;20272;-80
2021/04/25 10:30:08;;;;;;;0.60;0.60;;;10.70;99.90;;;;;;4975770;28;20174;-79
2021/04/25 10:32:35;;;;;;;4.03;0.85;;;11.00;99.90;;;;;;4976582;28;20197;-78
2021/04/25 10:35:22;;;;;;;0.28;0.28;;;11.20;99.90;;;;;;4976997;28;20649;-79
2021/04/25 10:37:49;;;;;;;0.68;0.68;;;11.20;99.90;;;;;;4976573;28;20202;-78
2021/04/25 10:40:19;;;;;;;0.43;0.43;;;11.10;99.90;;;;;;4976909;28;20169;-76
2021/04/25 10:42:58;;;;;;;0.30;0.30;;;11.10;99.90;;;;;;4978509;28;20634;-76
2021/04/25 10:45:28;;;;;;;13.88;2.20;;;11.10;99.90;;;;;;4978812;28;20209;-76
2021/04/25 10:48:34;;;;;;;0.93;0.88;;;11.20;99.90;;;;;;4975266;28;20591;-76
2021/04/25 10:51:14;;;;;;;0.68;0.68;;;10.90;99.90;;;;;;4955103;29;20213;-78
2021/04/25 10:53:43;;;;;;;0.75;0.75;;;10.90;99.90;;;;;;4955127;29;20693;-76
2021/04/25 10:56:12;;;;;;;0.63;0.63;;;11.00;99.90;;;;;;4967907;28;20236;-80
2021/04/25 10:58:39;;;;;;;1.10;0.82;;;11.20;99.90;;;;;;4976594;28;20663;-78
2021/04/25 11:01:05;;;;;;;0.65;0.65;;;11.30;99.90;;;;;;4974592;28;20538;-77
2021/04/25 11:03:34;;;;;;;0.30;0.30;;;11.20;99.90;;;;;;4974788;28;20249;-81
2021/04/25 11:06:00;;;;;;;0.57;0.57;;;11.30;99.90;;;;;;4976225;28;20683;-78
2021/04/25 11:08:32;;;;;;;0.38;0.38;;;11.30;99.90;;;;;;4976154;28;20232;-77
2021/04/25 11:11:08;;;;;;;0.45;0.45;;;11.20;99.90;;;;;;4975783;28;20633;-77
2021/04/25 11:13:33;;;;;;;0.70;0.70;;;11.20;99.90;;;;;;4975883;28;20165;-77
2021/04/25 11:16:16;;;;;;;0.70;0.70;;;11.00;99.90;;;;;;4976044;28;20688;-78
2021/04/25 11:19:05;;;;;;;2.00;1.13;;;11.20;99.90;;;;;;4975938;28;20595;-77
2021/04/25 11:21:41;;;;;;;3.72;1.75;;;11.10;99.90;;;;;;4975013;28;20159;-76
2021/04/25 11:24:09;;;;;;;0.93;0.93;;;11.30;99.90;;;;;;4975908;28;20268;-77
2021/04/25 11:29:02;;;;;;;0.60;0.60;;;11.40;99.90;;;;;;4976184;28;20586;-77
2021/04/25 11:31:46;;;;;;;1.00;0.50;;;11.40;99.90;;;;;;4975809;28;20162;-77
2021/04/25 11:34:27;;;;;;;3.65;2.05;;;11.40;99.90;;;;;;4975707;28;20257;-78
2021/04/25 11:36:54;;;;;;;1.30;1.02;;;11.20;99.90;;;;;;4974368;28;20190;-79
2021/04/25 11:39:25;;;;;;;0.60;0.60;;;11.20;99.90;;;;;;4974379;28;20182;-78
2021/04/25 11:41:52;;;;;;;0.50;0.50;;;11.30;99.90;;;;;;4975356;28;20162;-77
2021/04/25 11:44:25;;;;;;;0.20;0.20;;;11.40;99.90;;;;;;4975384;28;20257;-80
2021/04/25 11:46:51;;;;;;;1.63;0.85;;;11.40;99.90;;;;;;4974032;28;20219;-78
2021/04/25 11:49:27;;;;;;;0.80;0.80;;;11.50;99.90;;;;;;4975499;28;20253;-77
2021/04/25 11:52:07;;;;;;;6.53;0.90;;;11.50;99.90;;;;;;4975182;28;20213;-78
2021/04/25 11:54:33;;;;;;;0.85;0.57;;;11.70;99.90;;;;;;4975579;28;20169;-76
2021/04/25 11:57:20;;;;;;;0.60;0.50;;;11.80;99.90;;;;;;4975358;28;20200;-77
2021/04/25 11:59:54;;;;;;;0.93;0.32;;;11.70;99.90;;;;;;4974952;28;20184;-77
2021/04/25 12:02:20;;;;;;;0.45;0.30;;;11.80;99.90;;;;;;4975169;28;20174;-78
2021/04/25 12:04:50;;;;;;;0.85;0.85;;;11.80;99.90;;;;;;4975373;28;20154;-77
2021/04/25 12:07:32;;;;;;;1.58;0.55;;;11.90;99.90;;;;;;4974867;28;20210;-77
2021/04/25 12:09:58;;;;;;;1.52;1.42;;;11.90;99.90;;;;;;4975018;28;20190;-79
2021/04/25 12:12:24;;;;;;;0.20;0.20;;;12.00;99.90;;;;;;4974963;28;20198;-78
2021/04/25 12:15:04;;;;;;;0.40;0.40;;;11.80;99.90;;;;;;4974807;28;20232;-81
2021/04/25 12:17:31;;;;;;;3.53;0.82;;;11.90;99.90;;;;;;4953466;28;20276;-80
2021/04/25 12:19:59;;;;;;;0.52;0.52;;;11.90;99.90;;;;;;4953075;28;20205;-80
2021/04/25 12:22:25;;;;;;;0.55;0.55;;;12.00;99.90;;;;;;4954633;28;20253;-78
2021/04/25 12:24:58;;;;;;;0.65;0.63;;;12.30;99.90;;;;;;4955237;29;20194;-77
2021/04/25 12:27:25;;;;;;;0.40;0.40;;;12.40;99.90;;;;;;4954249;28;20214;-77
2021/04/25 12:29:51;;;;;;;5.25;1.25;;;12.20;99.90;;;;;;4954507;29;20174;-78
2021/04/25 12:32:22;;;;;;;0.30;0.30;;;12.20;99.90;;;;;;4953725;29;20178;-77
2021/04/25 12:35:01;;;;;;;1.05;1.05;;;12.30;99.90;;;;;;4955097;29;20190;-78
2021/04/25 12:37:39;;;;;;;3.72;1.02;;;12.30;99.90;;;;;;4954732;28;20542;-78
2021/04/25 12:40:25;;;;;;;0.70;0.70;;;12.40;99.90;;;;;;4954338;28;20625;-78
2021/04/25 12:43:12;;;;;;;0.70;0.70;;;12.50;99.90;;;;;;4953529;28;20170;-78
2021/04/25 12:45:40;;;;;;;0.63;0.63;;;12.40;99.90;;;;;;4954721;29;20301;-79
2021/04/25 12:48:33;;;;;;;3.65;1.45;;;12.40;99.90;;;;;;4957737;28;20527;-79
2021/04/25 12:51:15;;;;;;;0.30;0.30;;;12.40;99.90;;;;;;4954572;28;20250;-76
2021/04/25 12:54:03;;;;;;;1.95;1.80;;;12.60;99.90;;;;;;4954989;28;20572;-79
2021/04/25 12:56:34;;;;;;;1.35;0.95;;;12.80;99.90;;;;;;4954551;28;20185;-77
2021/04/25 12:59:08;;;;;;;0.38;0.38;;;12.60;99.90;;;;;;4953617;28;20175;-77